Time;durP1;ratioP1;P1;durP2;ratioP2;P2;SDS_P1;SDS_P2;PMS_P1;PMS_P2;Temp;Humidity;BMP_temperature;BMP_pressure;BME280_temperature;BME280_humidity;BME280_pressure;Samples;Min_cycle;Max_cycle;Signal;HPM_P1;HPM_P2
2023/07/19 00:01:31;;;;;;;1.92;1.40;;;27.50;47.90;;;;;;4980739;28;20026;-63
2023/07/19 00:03:56;;;;;;;2.25;1.50;;;27.50;47.90;;;;;;4982604;28;20030;-64
2023/07/19 00:06:23;;;;;;;2.15;1.50;;;27.50;47.90;;;;;;4981206;28;20030;-64
2023/07/19 00:08:49;;;;;;;2.50;1.65;;;27.50;47.90;;;;;;4981835;28;20092;-63
2023/07/19 00:11:14;;;;;;;2.28;1.50;;;27.50;47.90;;;;;;4978722;28;20031;-64
2023/07/19 00:13:40;;;;;;;2.88;1.38;;;27.50;47.90;;;;;;4978586;28;20534;-63
2023/07/19 00:16:06;;;;;;;1.90;1.30;;;27.50;47.90;;;;;;4973049;28;20042;-64
2023/07/19 00:18:31;;;;;;;2.30;1.48;;;27.50;47.90;;;;;;4981035;28;20031;-64
2023/07/19 00:20:57;;;;;;;2.22;1.50;;;27.50;47.90;;;;;;4980711;28;20055;-63
2023/07/19 00:23:22;;;;;;;2.15;1.40;;;27.50;47.90;;;;;;4963933;28;20037;-63
2023/07/19 00:25:48;;;;;;;1.90;1.45;;;27.40;47.80;;;;;;4978744;28;20031;-63
2023/07/19 00:28:14;;;;;;;2.10;1.60;;;27.40;47.80;;;;;;4978296;28;20030;-64
2023/07/19 00:30:40;;;;;;;2.15;1.50;;;27.50;47.90;;;;;;4981493;28;20074;-63
2023/07/19 00:33:06;;;;;;;1.77;1.35;;;27.40;47.80;;;;;;4979470;28;20475;-64
2023/07/19 00:35:32;;;;;;;2.53;1.50;;;27.40;47.80;;;;;;4981995;28;20037;-64
2023/07/19 00:37:58;;;;;;;2.50;1.55;;;27.40;47.80;;;;;;4979735;28;20026;-64
2023/07/19 00:40:23;;;;;;;2.05;1.42;;;27.40;47.80;;;;;;4977903;28;20489;-65
2023/07/19 00:42:56;;;;;;;2.00;1.52;;;27.40;47.80;;;;;;4980246;28;20096;-64
2023/07/19 00:45:22;;;;;;;1.67;1.30;;;27.40;47.80;;;;;;4969904;28;20030;-63
2023/07/19 00:47:48;;;;;;;1.70;1.30;;;27.40;47.80;;;;;;4971495;28;20424;-65
2023/07/19 00:50:14;;;;;;;1.75;1.27;;;27.40;47.80;;;;;;4981758;28;20027;-64
2023/07/19 00:52:40;;;;;;;2.33;1.48;;;27.40;47.80;;;;;;4980326;28;20026;-63
2023/07/19 00:55:07;;;;;;;2.38;1.60;;;27.40;47.80;;;;;;4981931;28;20037;-64
2023/07/19 00:57:33;;;;;;;2.28;1.48;;;27.40;47.80;;;;;;4962400;28;20041;-64
2023/07/19 00:59:59;;;;;;;2.13;1.40;;;27.40;47.90;;;;;;4962183;28;20145;-63
2023/07/19 01:02:26;;;;;;;2.20;1.50;;;27.40;47.90;;;;;;4981082;28;20555;-64
2023/07/19 01:04:51;;;;;;;2.03;1.40;;;27.40;47.90;;;;;;4980760;28;20460;-64
2023/07/19 01:07:17;;;;;;;2.55;1.55;;;27.40;47.80;;;;;;4981892;28;20034;-64
2023/07/19 01:09:43;;;;;;;2.13;1.40;;;27.40;47.90;;;;;;4978555;28;20089;-64
2023/07/19 01:12:09;;;;;;;2.05;1.50;;;27.40;48.40;;;;;;4978185;28;20035;-63
2023/07/19 01:14:35;;;;;;;1.92;1.38;;;27.40;47.90;;;;;;4979377;28;20033;-64
2023/07/19 01:17:01;;;;;;;1.60;1.30;;;27.40;47.90;;;;;;4980148;28;20501;-64
2023/07/19 01:19:27;;;;;;;2.88;1.58;;;27.40;47.90;;;;;;4964993;28;20027;-64
2023/07/19 01:21:55;;;;;;;2.45;1.50;;;27.40;47.90;;;;;;4979647;28;20026;-63
2023/07/19 01:24:20;;;;;;;1.90;1.40;;;27.40;47.90;;;;;;4980022;28;20019;-64
2023/07/19 01:26:47;;;;;;;2.15;1.40;;;27.40;47.90;;;;;;4977743;28;20023;-64
2023/07/19 01:29:12;;;;;;;1.80;1.30;;;27.40;47.90;;;;;;4968495;28;20310;-64
2023/07/19 01:31:38;;;;;;;1.80;1.30;;;27.40;47.90;;;;;;4978146;28;20042;-63
2023/07/19 01:34:04;;;;;;;1.50;1.20;;;27.40;47.90;;;;;;4962579;28;20400;-63
2023/07/19 01:36:30;;;;;;;2.00;1.40;;;27.40;47.90;;;;;;4982088;28;20034;-64
2023/07/19 01:38:55;;;;;;;1.92;1.40;;;27.40;47.90;;;;;;4960947;28;20442;-63
2023/07/19 01:41:21;;;;;;;2.03;1.50;;;27.40;47.90;;;;;;4979040;28;20035;-64
2023/07/19 01:43:47;;;;;;;2.13;1.40;;;27.30;47.80;;;;;;4977096;28;20453;-64
2023/07/19 01:46:12;;;;;;;2.00;1.40;;;27.40;47.90;;;;;;4978443;28;20117;-64
2023/07/19 01:48:38;;;;;;;2.20;1.40;;;27.40;47.90;;;;;;4978268;28;20041;-63
2023/07/19 01:51:05;;;;;;;2.00;1.30;;;27.40;47.90;;;;;;4978849;28;20030;-64
2023/07/19 01:53:30;;;;;;;2.28;1.50;;;27.30;47.90;;;;;;4976383;28;20574;-63
2023/07/19 01:55:56;;;;;;;1.42;1.10;;;27.30;47.80;;;;;;4978554;28;20041;-63
2023/07/19 01:58:22;;;;;;;1.58;1.25;;;27.30;47.80;;;;;;4977432;28;20058;-64
2023/07/19 02:00:48;;;;;;;1.90;1.40;;;27.30;47.80;;;;;;4977861;28;20065;-64
2023/07/19 02:03:13;;;;;;;1.83;1.30;;;27.30;47.90;;;;;;4978541;28;20031;-63
2023/07/19 02:05:39;;;;;;;1.75;1.23;;;27.30;47.80;;;;;;4969665;28;20030;-63
2023/07/19 02:08:05;;;;;;;2.05;1.52;;;27.30;47.80;;;;;;4978562;28;20058;-68
2023/07/19 02:10:30;;;;;;;1.92;1.20;;;27.30;47.80;;;;;;4980150;28;20435;-68
2023/07/19 02:12:56;;;;;;;1.80;1.40;;;27.30;47.80;;;;;;4977792;28;20161;-68
2023/07/19 02:15:22;;;;;;;1.70;1.33;;;27.30;47.80;;;;;;4977810;28;20669;-68
2023/07/19 02:17:47;;;;;;;2.30;1.55;;;27.30;47.90;;;;;;4978813;28;20026;-68
2023/07/19 02:20:14;;;;;;;2.15;1.27;;;27.30;47.80;;;;;;4979669;28;20042;-68
2023/07/19 02:22:39;;;;;;;2.10;1.35;;;27.30;47.90;;;;;;4978560;28;20459;-69
2023/07/19 02:25:05;;;;;;;3.47;1.50;;;27.30;47.90;;;;;;4978635;28;20054;-68
2023/07/19 02:27:31;;;;;;;1.58;1.33;;;27.30;47.90;;;;;;4979162;28;20399;-68
2023/07/19 02:29:57;;;;;;;1.75;1.30;;;27.30;47.90;;;;;;4978245;28;20100;-68
2023/07/19 02:32:22;;;;;;;2.05;1.50;;;27.30;47.90;;;;;;4979058;28;20038;-68
2023/07/19 02:34:48;;;;;;;1.73;1.30;;;27.30;47.90;;;;;;4977784;28;20035;-68
2023/07/19 02:37:14;;;;;;;2.05;1.33;;;27.30;47.90;;;;;;4979460;28;20042;-68
2023/07/19 02:39:39;;;;;;;1.83;1.33;;;27.30;47.90;;;;;;4977991;28;20858;-68
2023/07/19 02:42:05;;;;;;;1.85;1.33;;;27.30;47.90;;;;;;4976714;28;20434;-68
2023/07/19 02:44:31;;;;;;;1.58;1.23;;;27.30;47.90;;;;;;4977444;28;20355;-68
2023/07/19 02:46:56;;;;;;;2.03;1.40;;;27.30;47.90;;;;;;4980868;28;20033;-68
2023/07/19 02:49:24;;;;;;;1.80;1.40;;;27.30;47.90;;;;;;4979505;28;20076;-68
2023/07/19 02:51:49;;;;;;;1.70;1.20;;;27.30;47.90;;;;;;4981205;28;20073;-68
2023/07/19 02:54:16;;;;;;;1.67;1.20;;;27.30;47.90;;;;;;4979793;28;20018;-68
2023/07/19 02:56:41;;;;;;;1.55;1.15;;;27.30;47.90;;;;;;4981712;28;20375;-68
2023/07/19 02:59:07;;;;;;;1.83;1.30;;;27.30;47.90;;;;;;4982854;28;20031;-68
2023/07/19 03:01:33;;;;;;;2.00;1.33;;;27.30;47.90;;;;;;4982388;28;20019;-68
2023/07/19 03:03:59;;;;;;;1.92;1.40;;;27.30;47.90;;;;;;4982180;28;20022;-68
2023/07/19 03:06:25;;;;;;;2.03;1.27;;;27.30;47.90;;;;;;4981996;28;20402;-68
2023/07/19 03:08:50;;;;;;;1.75;1.25;;;27.30;47.90;;;;;;4983695;28;20034;-68
2023/07/19 03:11:16;;;;;;;2.03;1.20;;;27.30;47.90;;;;;;4981915;28;20124;-68
2023/07/19 03:13:41;;;;;;;1.48;1.17;;;27.30;48.00;;;;;;4981616;28;20109;-68
2023/07/19 03:16:07;;;;;;;1.55;1.30;;;27.30;47.90;;;;;;4965817;28;20038;-68
2023/07/19 03:18:33;;;;;;;2.13;1.48;;;27.30;47.90;;;;;;4982921;28;20915;-68
2023/07/19 03:21:00;;;;;;;1.60;1.20;;;27.30;47.90;;;;;;4984083;28;20026;-68
2023/07/19 03:23:26;;;;;;;1.98;1.50;;;27.20;47.90;;;;;;4980296;28;20027;-68
2023/07/19 03:25:53;;;;;;;1.35;1.20;;;27.20;47.90;;;;;;4983223;28;20023;-68
2023/07/19 03:28:18;;;;;;;1.60;1.10;;;27.20;47.90;;;;;;4982968;28;20487;-68
2023/07/19 03:30:44;;;;;;;1.27;1.00;;;27.20;47.90;;;;;;4962979;28;20580;-68
2023/07/19 03:33:10;;;;;;;1.85;1.30;;;27.20;47.90;;;;;;4984766;28;20054;-68
2023/07/19 03:35:35;;;;;;;1.67;1.20;;;27.30;48.00;;;;;;4964845;28;20041;-68
2023/07/19 03:38:02;;;;;;;1.55;1.23;;;27.20;47.90;;;;;;4972890;28;20034;-68
2023/07/19 03:40:28;;;;;;;1.65;1.15;;;27.20;47.90;;;;;;4982007;28;20023;-68
2023/07/19 03:42:53;;;;;;;1.90;1.30;;;27.20;47.90;;;;;;4972112;28;20092;-68
2023/07/19 03:45:19;;;;;;;1.88;1.38;;;27.20;47.90;;;;;;4979320;28;20031;-68
2023/07/19 03:47:44;;;;;;;1.85;1.30;;;27.20;48.00;;;;;;4982886;28;20042;-68
2023/07/19 03:50:10;;;;;;;1.85;1.35;;;27.20;47.90;;;;;;4982593;28;20027;-68
2023/07/19 03:52:36;;;;;;;2.58;1.30;;;27.20;47.90;;;;;;4980531;28;20033;-68
2023/07/19 03:55:03;;;;;;;1.70;1.30;;;27.20;47.90;;;;;;4981406;28;20046;-68
2023/07/19 03:57:28;;;;;;;1.70;1.10;;;27.20;47.90;;;;;;4963004;28;20030;-68
2023/07/19 03:59:54;;;;;;;1.52;1.10;;;27.20;48.00;;;;;;4964325;28;20034;-68
2023/07/19 04:02:22;;;;;;;1.75;1.30;;;27.20;48.00;;;;;;4982775;28;20031;-69
2023/07/19 04:04:48;;;;;;;2.38;1.40;;;27.20;48.00;;;;;;4979673;28;20407;-68
2023/07/19 04:07:14;;;;;;;2.30;1.50;;;27.20;48.00;;;;;;4981968;28;20027;-68
2023/07/19 04:09:40;;;;;;;1.45;1.15;;;27.20;48.00;;;;;;4980124;28;20113;-68
2023/07/19 04:12:06;;;;;;;2.00;1.38;;;27.20;48.00;;;;;;4981788;28;20498;-68
2023/07/19 04:14:32;;;;;;;1.77;1.40;;;27.20;48.00;;;;;;4981132;28;20114;-69
2023/07/19 04:16:58;;;;;;;1.58;1.27;;;27.20;48.00;;;;;;4982253;28;20421;-68
2023/07/19 04:19:23;;;;;;;1.90;1.30;;;27.20;48.00;;;;;;4979584;28;20061;-68
2023/07/19 04:21:49;;;;;;;2.10;1.40;;;27.20;48.00;;;;;;4971648;28;20452;-68
2023/07/19 04:24:14;;;;;;;1.90;1.23;;;27.20;48.00;;;;;;4981320;28;20034;-68
2023/07/19 04:26:40;;;;;;;1.70;1.20;;;27.20;48.00;;;;;;4965117;28;20522;-68
2023/07/19 04:29:06;;;;;;;1.90;1.30;;;27.20;48.00;;;;;;4966716;28;20030;-68
2023/07/19 04:31:31;;;;;;;2.15;1.33;;;27.20;48.00;;;;;;4979664;28;20035;-68
2023/07/19 04:33:57;;;;;;;1.42;1.15;;;27.10;47.90;;;;;;4964420;28;20034;-68
2023/07/19 04:36:23;;;;;;;1.85;1.35;;;27.20;48.00;;;;;;4967427;28;20423;-68
2023/07/19 04:38:48;;;;;;;1.65;1.20;;;27.20;48.00;;;;;;4979667;28;20117;-68
2023/07/19 04:41:14;;;;;;;1.55;1.10;;;27.20;48.00;;;;;;4980685;28;20429;-68
2023/07/19 04:43:39;;;;;;;2.10;1.20;;;27.20;48.00;;;;;;4978939;28;20106;-68
2023/07/19 04:46:05;;;;;;;1.65;1.17;;;27.10;47.90;;;;;;4980183;28;20383;-68
2023/07/19 04:48:31;;;;;;;1.40;1.15;;;27.10;48.00;;;;;;4980193;28;20034;-68
2023/07/19 04:50:57;;;;;;;2.78;1.20;;;27.10;47.90;;;;;;4970973;28;20135;-68
2023/07/19 04:53:24;;;;;;;2.00;1.30;;;27.10;47.90;;;;;;4983583;28;20031;-68
2023/07/19 04:55:51;;;;;;;1.90;1.30;;;27.10;47.90;;;;;;4980300;28;20713;-68
2023/07/19 04:58:17;;;;;;;1.70;1.20;;;27.10;48.00;;;;;;4981197;28;20035;-68
2023/07/19 05:00:43;;;;;;;2.08;1.38;;;27.10;48.00;;;;;;4978540;28;20084;-68
2023/07/19 05:03:08;;;;;;;1.52;1.23;;;27.10;48.00;;;;;;4964781;28;20019;-69
2023/07/19 05:05:34;;;;;;;2.00;1.33;;;27.10;48.00;;;;;;4978430;28;20130;-68
2023/07/19 05:08:00;;;;;;;1.50;1.20;;;27.10;48.00;;;;;;4969936;28;20034;-68
2023/07/19 05:10:25;;;;;;;2.10;1.30;;;27.10;48.00;;;;;;4981037;28;20371;-68
2023/07/19 05:12:52;;;;;;;2.00;1.40;;;27.10;48.00;;;;;;4982364;28;20026;-68
2023/07/19 05:15:17;;;;;;;2.17;1.20;;;27.10;48.00;;;;;;4978448;28;20066;-67
2023/07/19 05:17:43;;;;;;;1.88;1.35;;;27.10;48.10;;;;;;4979764;28;20486;-67
2023/07/19 05:20:09;;;;;;;2.13;1.40;;;27.10;48.10;;;;;;4980299;28;20030;-69
2023/07/19 05:22:35;;;;;;;1.98;1.38;;;27.10;48.20;;;;;;4981989;28;20496;-68
2023/07/19 05:25:00;;;;;;;2.45;1.50;;;27.10;48.20;;;;;;4980958;28;20051;-66
2023/07/19 05:27:26;;;;;;;2.20;1.38;;;27.10;48.20;;;;;;4979785;28;20026;-66
2023/07/19 05:29:51;;;;;;;1.45;1.17;;;27.10;48.20;;;;;;4979692;28;20398;-66
2023/07/19 05:32:17;;;;;;;1.75;1.30;;;27.10;48.10;;;;;;4978859;28;20085;-66
2023/07/19 05:34:43;;;;;;;1.63;1.20;;;27.10;48.20;;;;;;4979204;28;20046;-66
2023/07/19 05:37:08;;;;;;;1.58;1.20;;;27.10;48.10;;;;;;4970997;28;20031;-66
2023/07/19 05:39:34;;;;;;;2.15;1.30;;;27.10;48.10;;;;;;4979525;28;20153;-66
2023/07/19 05:42:01;;;;;;;1.77;1.20;;;27.10;48.10;;;;;;4978897;28;20121;-66
2023/07/19 05:44:26;;;;;;;1.95;1.20;;;27.10;48.10;;;;;;4980519;28;20471;-66
2023/07/19 05:46:52;;;;;;;2.40;1.42;;;27.10;48.10;;;;;;4977422;28;20042;-66
2023/07/19 05:49:18;;;;;;;1.67;1.20;;;27.10;48.10;;;;;;4979236;28;20022;-66
2023/07/19 05:51:44;;;;;;;2.03;1.33;;;27.10;48.10;;;;;;4980285;28;20037;-68
2023/07/19 05:54:10;;;;;;;1.60;1.30;;;27.10;48.10;;;;;;4980108;28;20031;-67
2023/07/19 05:56:36;;;;;;;1.73;1.30;;;27.10;48.20;;;;;;4980920;28;20041;-68
2023/07/19 05:59:04;;;;;;;1.58;1.30;;;27.10;48.30;;;;;;4981207;28;20502;-68
2023/07/19 06:01:30;;;;;;;2.20;1.20;;;27.10;48.30;;;;;;4961782;28;20034;-68
2023/07/19 06:03:55;;;;;;;2.20;1.30;;;27.10;48.30;;;;;;4978445;28;20026;-68
2023/07/19 06:06:21;;;;;;;2.22;1.35;;;27.10;48.40;;;;;;4976209;28;20036;-68
2023/07/19 06:08:47;;;;;;;1.92;1.20;;;27.10;48.40;;;;;;4964988;28;20128;-68
2023/07/19 06:11:12;;;;;;;2.17;1.33;;;27.10;48.40;;;;;;4979532;28;20104;-67
2023/07/19 06:13:38;;;;;;;2.28;1.45;;;27.20;48.40;;;;;;4979072;28;20110;-67
2023/07/19 06:16:04;;;;;;;2.30;1.40;;;27.20;48.40;;;;;;4977844;28;20034;-67
2023/07/19 06:18:30;;;;;;;1.98;1.30;;;27.20;48.40;;;;;;4962022;28;20070;-68
2023/07/19 06:20:55;;;;;;;1.85;1.40;;;27.20;48.50;;;;;;4978918;28;20597;-69
2023/07/19 06:23:21;;;;;;;2.25;1.42;;;27.20;48.50;;;;;;4978345;28;20376;-69
2023/07/19 06:25:49;;;;;;;2.65;1.40;;;27.20;48.60;;;;;;4978770;28;20053;-68
2023/07/19 06:28:15;;;;;;;1.92;1.25;;;27.20;48.70;;;;;;4969123;28;20042;-69
2023/07/19 06:30:41;;;;;;;2.08;1.45;;;27.10;49.30;;;;;;4978631;28;20050;-70
2023/07/19 06:33:07;;;;;;;3.80;1.83;;;27.20;49.20;;;;;;4964864;28;20545;-68
2023/07/19 06:35:36;;;;;;;2.92;1.75;;;27.20;49.30;;;;;;4978767;28;20045;-66
2023/07/19 06:38:01;;;;;;;3.38;1.50;;;27.20;49.40;;;;;;4978551;28;20057;-68
2023/07/19 06:40:27;;;;;;;3.97;1.50;;;27.20;49.50;;;;;;4979315;28;20125;-69
2023/07/19 06:42:53;;;;;;;3.08;1.77;;;27.20;49.50;;;;;;4982304;28;20122;-68
2023/07/19 06:45:19;;;;;;;2.58;1.58;;;27.30;50.40;;;;;;4977469;28;20394;-68
2023/07/19 06:47:45;;;;;;;2.70;1.80;;;27.30;50.90;;;;;;4975769;28;20041;-68
2023/07/19 06:50:11;;;;;;;2.58;1.60;;;27.30;51.10;;;;;;4978281;28;20122;-70
2023/07/19 06:52:37;;;;;;;2.40;1.60;;;27.30;51.10;;;;;;4962442;28;20037;-68
2023/07/19 06:55:04;;;;;;;2.92;1.70;;;27.30;51.20;;;;;;4977195;28;20089;-69
2023/07/19 06:57:31;;;;;;;3.50;1.90;;;27.40;51.30;;;;;;4977623;28;20023;-69
2023/07/19 06:59:57;;;;;;;3.75;1.90;;;27.40;51.50;;;;;;4978618;28;20027;-67
2023/07/19 07:02:23;;;;;;;3.75;2.00;;;27.40;51.90;;;;;;4978941;28;20029;-69
2023/07/19 07:04:50;;;;;;;4.47;2.13;;;27.40;51.50;;;;;;4978257;28;20042;-69
2023/07/19 07:07:19;;;;;;;2.33;1.70;;;27.40;51.60;;;;;;4978505;28;20434;-69
2023/07/19 07:09:45;;;;;;;4.03;1.92;;;27.40;52.00;;;;;;4977782;28;20101;-70
2023/07/19 07:12:11;;;;;;;2.60;1.73;;;27.50;51.80;;;;;;4977669;28;20046;-67
2023/07/19 07:14:37;;;;;;;3.28;1.90;;;27.50;51.70;;;;;;4977025;28;20023;-67
2023/07/19 07:17:04;;;;;;;2.70;1.65;;;27.50;51.10;;;;;;4976672;28;20132;-67
2023/07/19 07:19:29;;;;;;;2.55;1.75;;;27.50;50.60;;;;;;4978793;28;20474;-67
2023/07/19 07:21:55;;;;;;;2.42;1.70;;;27.50;50.80;;;;;;4977511;28;20038;-67
2023/07/19 07:24:20;;;;;;;3.35;1.80;;;27.50;50.10;;;;;;4980672;28;20027;-67
2023/07/19 07:26:46;;;;;;;2.53;1.80;;;27.50;49.90;;;;;;4978852;28;20168;-67
2023/07/19 07:29:11;;;;;;;3.22;1.70;;;27.50;49.70;;;;;;4968445;28;20372;-67
2023/07/19 07:31:37;;;;;;;2.70;1.77;;;27.50;49.60;;;;;;4978002;28;20490;-69
2023/07/19 07:34:03;;;;;;;2.60;1.80;;;27.50;49.60;;;;;;4960919;28;20080;-68
2023/07/19 07:36:28;;;;;;;2.50;1.70;;;27.60;50.20;;;;;;4961273;28;20135;-67
2023/07/19 07:38:54;;;;;;;3.58;1.80;;;27.60;50.50;;;;;;4978362;28;20035;-68
2023/07/19 07:41:19;;;;;;;3.13;2.00;;;27.60;50.40;;;;;;4983201;28;20030;-69
2023/07/19 07:43:45;;;;;;;2.72;1.70;;;27.60;50.50;;;;;;4983674;28;20033;-69
2023/07/19 07:46:11;;;;;;;2.80;1.80;;;27.60;50.30;;;;;;4967451;28;20031;-69
2023/07/19 07:48:36;;;;;;;2.97;1.70;;;27.60;50.30;;;;;;4979562;28;20041;-69
2023/07/19 07:51:02;;;;;;;2.50;1.60;;;27.60;50.30;;;;;;4971526;28;20035;-69
2023/07/19 07:53:28;;;;;;;2.60;1.80;;;27.60;50.20;;;;;;4981739;28;20023;-68
2023/07/19 07:55:53;;;;;;;2.97;1.90;;;27.60;50.20;;;;;;4964407;28;20532;-68
2023/07/19 07:58:19;;;;;;;2.63;2.00;;;27.60;50.10;;;;;;4982011;28;20085;-68
2023/07/19 08:00:45;;;;;;;2.40;1.77;;;27.60;50.10;;;;;;4980533;28;20138;-70
2023/07/19 08:03:12;;;;;;;2.85;1.77;;;27.60;50.00;;;;;;4965790;28;20407;-71
2023/07/19 08:05:38;;;;;;;2.25;1.67;;;27.70;50.10;;;;;;4979594;28;20355;-70
2023/07/19 08:08:05;;;;;;;2.97;1.80;;;27.70;50.00;;;;;;4983084;28;20038;-70
2023/07/19 08:10:40;;;;;;;2.95;1.80;;;27.70;49.80;;;;;;4981060;28;20451;-69
2023/07/19 08:13:07;;;;;;;2.58;1.60;;;27.80;49.70;;;;;;4981532;28;20117;-70
2023/07/19 08:15:34;;;;;;;2.60;1.80;;;27.80;49.60;;;;;;4966267;28;20505;-71
2023/07/19 08:18:00;;;;;;;2.75;1.63;;;27.80;49.50;;;;;;4979730;28;20121;-70
2023/07/19 08:20:26;;;;;;;2.40;1.67;;;27.80;49.50;;;;;;4981212;28;20467;-69
2023/07/19 08:22:51;;;;;;;2.70;1.60;;;27.80;49.50;;;;;;4982855;28;20093;-69
2023/07/19 08:25:21;;;;;;;2.70;1.70;;;27.80;49.50;;;;;;4982424;28;20119;-68
2023/07/19 08:27:50;;;;;;;2.72;1.63;;;27.80;49.40;;;;;;4981007;28;20034;-69
2023/07/19 08:30:15;;;;;;;2.47;1.70;;;27.80;49.90;;;;;;4981492;28;20035;-68
2023/07/19 08:32:48;;;;;;;3.33;1.60;;;27.80;49.30;;;;;;4981361;28;20101;-69
2023/07/19 08:35:17;;;;;;;2.92;1.88;;;27.80;49.30;;;;;;4979968;28;20049;-70
2023/07/19 08:37:45;;;;;;;;;;;27.80;49.30;;;;;;4985496;28;20343;-67
2023/07/19 08:40:12;;;;;;;2.30;1.40;;;27.80;49.30;;;;;;4982299;28;19910;-67
2023/07/19 08:42:39;;;;;;;1.73;1.35;;;27.80;49.40;;;;;;4967131;28;20054;-67
2023/07/19 08:45:09;;;;;;;2.08;1.40;;;27.80;48.70;;;;;;4971285;28;20121;-67
2023/07/19 08:47:37;;;;;;;2.03;1.42;;;27.80;48.70;;;;;;4979934;28;20026;-67
2023/07/19 08:50:07;;;;;;;2.30;1.50;;;27.70;48.60;;;;;;4981904;28;20560;-67
2023/07/19 08:52:33;;;;;;;2.92;1.75;;;27.70;48.60;;;;;;4965275;28;20352;-67
2023/07/19 08:55:02;;;;;;;2.15;1.33;;;27.70;48.60;;;;;;4981469;28;20110;-67
2023/07/19 08:57:29;;;;;;;1.88;1.30;;;27.70;48.60;;;;;;4970091;28;20026;-67
2023/07/19 08:59:54;;;;;;;2.40;1.50;;;27.70;48.60;;;;;;4981578;28;20118;-67
2023/07/19 09:02:20;;;;;;;1.77;1.30;;;27.70;48.60;;;;;;4978991;28;20101;-67
2023/07/19 09:05:15;;;;;;;2.38;1.63;;;27.70;48.60;;;;;;4982165;28;20506;-67
2023/07/19 09:07:41;;;;;;;1.50;1.30;;;27.70;48.60;;;;;;4957117;28;20135;-67
2023/07/19 09:10:09;;;;;;;1.50;1.23;;;27.70;48.60;;;;;;4969734;28;20621;-67
2023/07/19 09:12:42;;;;;;;1.75;1.30;;;27.70;48.60;;;;;;4980976;28;20038;-67
2023/07/19 09:15:09;;;;;;;2.30;1.50;;;27.70;48.50;;;;;;4979123;28;20122;-67
2023/07/19 09:17:45;;;;;;;1.95;1.20;;;27.70;48.50;;;;;;4978293;28;20616;-67
2023/07/19 09:20:12;;;;;;;1.65;1.30;;;27.70;48.60;;;;;;4980439;28;20027;-67
2023/07/19 09:22:38;;;;;;;2.85;1.40;;;27.60;48.50;;;;;;4980962;28;20046;-67
2023/07/19 09:25:06;;;;;;;2.38;1.48;;;27.70;48.50;;;;;;4970717;28;20467;-67
2023/07/19 09:27:33;;;;;;;1.90;1.40;;;27.60;48.40;;;;;;4980532;28;20022;-67
2023/07/19 09:29:59;;;;;;;2.13;1.40;;;27.60;49.00;;;;;;4978630;28;20501;-67
2023/07/19 09:32:25;;;;;;;2.08;1.40;;;27.60;48.40;;;;;;4963127;28;20131;-66
2023/07/19 09:34:55;;;;;;;1.80;1.40;;;27.60;48.40;;;;;;4980068;28;20026;-67
2023/07/19 09:37:25;;;;;;;1.98;1.45;;;27.60;48.40;;;;;;4979649;28;20022;-67
2023/07/19 09:39:52;;;;;;;1.83;1.40;;;27.60;48.40;;;;;;4980011;28;20113;-67
2023/07/19 09:42:19;;;;;;;1.60;1.30;;;27.60;48.50;;;;;;4980699;28;20110;-67
2023/07/19 09:44:49;;;;;;;1.88;1.33;;;27.60;48.40;;;;;;4969223;28;20125;-67
2023/07/19 09:47:15;;;;;;;1.70;1.20;;;27.60;48.50;;;;;;4979289;28;20102;-67
2023/07/19 09:49:42;;;;;;;2.20;1.50;;;27.60;48.40;;;;;;4978606;28;20432;-67
2023/07/19 09:52:11;;;;;;;1.77;1.23;;;27.60;48.40;;;;;;4980186;28;20022;-67
2023/07/19 09:54:37;;;;;;;1.90;1.33;;;27.60;48.40;;;;;;4980327;28;20042;-67
2023/07/19 09:57:03;;;;;;;1.80;1.30;;;27.60;48.40;;;;;;4978566;28;20093;-67
2023/07/19 09:59:43;;;;;;;1.60;1.20;;;27.60;48.40;;;;;;4982089;28;20023;-67
2023/07/19 10:02:10;;;;;;;1.95;1.20;;;27.60;48.50;;;;;;4978542;28;20023;-67
2023/07/19 10:04:38;;;;;;;2.13;1.40;;;27.60;48.50;;;;;;4977541;28;20050;-67
2023/07/19 10:07:05;;;;;;;1.90;1.23;;;27.50;48.40;;;;;;4978330;28;20023;-67
2023/07/19 10:09:42;;;;;;;1.77;1.30;;;27.60;48.50;;;;;;4978592;28;20045;-67
2023/07/19 10:12:17;;;;;;;2.20;1.30;;;27.60;48.50;;;;;;4981042;28;20026;-67
2023/07/19 10:14:51;;;;;;;2.08;1.50;;;27.50;48.40;;;;;;4965084;28;20090;-67
2023/07/19 10:17:17;;;;;;;2.10;1.30;;;27.50;48.40;;;;;;4960550;28;20089;-67
2023/07/19 10:20:10;;;;;;;1.83;1.17;;;27.60;48.50;;;;;;4976911;28;20045;-67
2023/07/19 10:22:47;;;;;;;2.13;1.40;;;27.50;48.40;;;;;;4979090;28;20030;-67
2023/07/19 10:25:49;;;;;;;2.60;1.58;;;27.50;48.40;;;;;;4962956;28;20479;-67
2023/07/19 10:28:25;;;;;;;1.75;1.30;;;27.50;48.40;;;;;;4978701;28;20402;-67
2023/07/19 10:30:59;;;;;;;2.55;1.50;;;27.50;48.40;;;;;;4979005;28;20554;-67
2023/07/19 10:33:30;;;;;;;1.60;1.23;;;27.50;48.40;;;;;;4979051;28;20084;-67
2023/07/19 10:36:03;;;;;;;1.77;1.33;;;27.50;48.40;;;;;;4962645;28;20042;-66
2023/07/19 10:38:30;;;;;;;2.20;1.48;;;27.50;48.50;;;;;;4978946;28;20553;-66
2023/07/19 10:41:05;;;;;;;1.58;1.20;;;27.50;48.40;;;;;;4980416;28;20030;-66
2023/07/19 10:43:33;;;;;;;1.85;1.20;;;27.50;48.40;;;;;;4978583;28;20018;-65
2023/07/19 10:46:00;;;;;;;2.03;1.20;;;27.50;48.40;;;;;;4977380;28;20129;-65
2023/07/19 10:48:29;;;;;;;2.00;1.30;;;27.50;48.50;;;;;;4977186;28;20129;-65
2023/07/19 10:51:00;;;;;;;1.30;1.02;;;27.50;48.50;;;;;;4977457;28;20129;-65
2023/07/19 10:53:26;;;;;;;1.60;1.20;;;27.50;48.40;;;;;;4978473;28;20038;-65
2023/07/19 10:55:56;;;;;;;1.77;1.20;;;27.50;48.40;;;;;;4979327;28;20038;-65
2023/07/19 10:58:24;;;;;;;1.52;1.00;;;27.50;48.50;;;;;;4977049;28;20071;-65
2023/07/19 11:00:51;;;;;;;1.60;1.10;;;27.50;48.40;;;;;;4960312;28;20540;-65
2023/07/19 11:03:17;;;;;;;1.73;1.30;;;27.50;48.40;;;;;;4976871;28;20030;-65
2023/07/19 11:05:47;;;;;;;2.10;1.40;;;27.50;48.50;;;;;;4977823;28;20129;-65
2023/07/19 11:08:19;;;;;;;1.75;1.30;;;27.50;48.50;;;;;;4977385;28;20038;-65
2023/07/19 11:10:45;;;;;;;1.83;1.25;;;27.50;48.50;;;;;;4977613;28;20120;-65
2023/07/19 11:13:11;;;;;;;1.70;1.15;;;27.50;48.50;;;;;;4979055;28;20149;-65
2023/07/19 11:15:41;;;;;;;1.80;1.20;;;27.50;48.50;;;;;;4981164;28;20030;-65
2023/07/19 11:18:07;;;;;;;1.45;1.23;;;27.50;48.60;;;;;;4982195;28;20025;-65
2023/07/19 11:20:36;;;;;;;1.67;1.20;;;27.50;48.50;;;;;;4982156;28;20031;-65
2023/07/19 11:23:09;;;;;;;1.50;1.20;;;27.50;48.50;;;;;;4981744;28;20569;-65
2023/07/19 11:25:38;;;;;;;1.77;1.35;;;27.50;48.60;;;;;;4985058;28;20061;-65
2023/07/19 11:28:03;;;;;;;1.27;1.08;;;27.50;48.50;;;;;;4981022;28;20023;-65
2023/07/19 11:30:40;;;;;;;1.40;1.10;;;27.50;48.50;;;;;;4981691;28;20880;-64
2023/07/19 11:33:07;;;;;;;1.80;1.30;;;27.50;48.50;;;;;;4983378;28;20572;-65
2023/07/19 11:35:34;;;;;;;1.30;1.10;;;27.50;48.50;;;;;;4980399;28;20031;-65
2023/07/19 11:37:59;;;;;;;1.67;1.30;;;27.50;48.50;;;;;;4981246;28;20403;-65
2023/07/19 11:40:25;;;;;;;1.50;1.17;;;27.50;48.50;;;;;;4972334;28;20117;-65
2023/07/19 11:42:57;;;;;;;1.67;1.20;;;27.50;48.50;;;;;;4980695;28;20027;-64
2023/07/19 11:45:27;;;;;;;3.30;1.52;;;27.50;48.50;;;;;;4981896;28;20048;-65
2023/07/19 11:48:01;;;;;;;11.20;6.00;;;27.50;48.50;;;;;;4981601;28;20096;-64
2023/07/19 11:50:27;;;;;;;24.65;13.50;;;27.50;48.50;;;;;;4979433;28;20482;-65
2023/07/19 11:53:01;;;;;;;38.45;20.55;;;27.50;48.50;;;;;;4979855;28;20034;-65
2023/07/19 11:55:29;;;;;;;42.53;23.13;;;27.50;48.50;;;;;;4982376;28;20118;-65
2023/07/19 11:58:02;;;;;;;54.53;29.35;;;27.50;48.50;;;;;;4978047;28;20173;-65
2023/07/19 12:00:29;;;;;;;56.95;32.40;;;27.40;49.00;;;;;;4980978;28;20080;-65
2023/07/19 12:02:55;;;;;;;66.47;37.00;;;27.40;48.50;;;;;;4981358;28;20106;-65
2023/07/19 12:05:25;;;;;;;62.70;34.65;;;27.50;48.50;;;;;;4980777;28;20608;-65
2023/07/19 12:07:52;;;;;;;61.80;34.08;;;27.40;48.50;;;;;;4980853;28;20165;-65
2023/07/19 12:10:23;;;;;;;59.03;34.10;;;27.50;48.60;;;;;;4982337;28;20065;-65
2023/07/19 12:12:50;;;;;;;57.75;31.98;;;27.40;48.50;;;;;;4965196;28;20398;-65
2023/07/19 12:15:16;;;;;;;53.30;31.63;;;27.50;48.60;;;;;;4981010;28;20039;-65
2023/07/19 12:17:42;;;;;;;54.17;30.67;;;27.50;49.10;;;;;;4981307;28;20042;-65
2023/07/19 12:20:09;;;;;;;54.45;30.23;;;27.40;48.50;;;;;;4978602;28;20181;-65
2023/07/19 12:22:38;;;;;;;56.65;31.95;;;27.40;48.50;;;;;;4982025;28;20490;-65
2023/07/19 12:25:04;;;;;;;52.92;30.70;;;27.50;48.60;;;;;;4979868;28;20440;-64
2023/07/19 12:27:30;;;;;;;56.53;32.38;;;27.40;48.50;;;;;;4978121;28;20915;-65
2023/07/19 12:29:58;;;;;;;58.55;32.80;;;27.40;48.50;;;;;;4980261;28;20034;-65
2023/07/19 12:32:24;;;;;;;53.40;30.95;;;27.40;48.50;;;;;;4979351;28;20035;-65
2023/07/19 12:34:50;;;;;;;56.03;30.80;;;27.40;48.50;;;;;;4962460;28;20390;-65
2023/07/19 12:37:16;;;;;;;53.40;31.42;;;27.40;48.50;;;;;;4979091;28;20035;-65
2023/07/19 12:39:41;;;;;;;56.10;31.85;;;27.40;48.50;;;;;;4980848;28;20022;-65
2023/07/19 12:42:08;;;;;;;53.78;31.95;;;27.40;48.50;;;;;;4980848;28;20034;-65
2023/07/19 12:44:35;;;;;;;53.95;31.70;;;27.50;48.60;;;;;;4981501;28;20027;-65